Time;durP1;ratioP1;P1;durP2;ratioP2;P2;SDS_P1;SDS_P2;PMS_P1;PMS_P2;Temp;Humidity;BMP_temperature;BMP_pressure;BME280_temperature;BME280_humidity;BME280_pressure;Samples;Min_cycle;Max_cycle;Signal;HPM_P1;HPM_P2
2022/11/07 00:02:04;;;;;;;4.57;2.60;;;;;;;9.49;99.35;100680.06;5052458;28;20064;-90
2022/11/07 00:04:30;;;;;;;;;;;;;;;9.52;99.39;100684.31;5053885;28;20108;-89
2022/11/07 00:06:55;;;;;;;4.63;2.40;;;;;;;9.55;99.32;100687.72;5052907;28;19952;-90
2022/11/07 00:09:20;;;;;;;3.93;2.40;;;;;;;9.58;99.37;100684.22;5053306;28;20021;-89
2022/11/07 00:11:46;;;;;;;3.97;2.40;;;;;;;9.62;98.98;100688.50;5053629;28;20067;-90
2022/11/07 00:14:12;;;;;;;5.33;2.60;;;;;;;9.62;99.07;100687.66;5053306;28;20033;-89
2022/11/07 00:16:37;;;;;;;4.95;2.70;;;;;;;9.61;99.02;100685.94;5053830;28;20025;-89
2022/11/07 00:19:03;;;;;;;3.97;2.50;;;;;;;9.59;98.60;100688.53;5053410;28;20112;-89
2022/11/07 00:21:28;;;;;;;3.50;2.20;;;;;;;9.56;98.84;100694.63;5052883;28;20029;-89
2022/11/07 00:23:54;;;;;;;3.53;2.37;;;;;;;9.52;98.89;100685.16;5053223;28;20159;-89
2022/11/07 00:26:19;;;;;;;7.50;3.10;;;;;;;9.51;99.35;100691.25;5055061;28;20029;-90
2022/11/07 00:28:45;;;;;;;3.77;2.70;;;;;;;9.48;99.19;100693.88;5056594;28;20028;-89
2022/11/07 00:31:13;;;;;;;3.50;2.40;;;;;;;9.49;98.79;100699.91;5056116;28;20053;-89
2022/11/07 00:33:39;;;;;;;3.15;2.40;;;;;;;9.46;98.82;100702.56;5056600;28;20037;-89
2022/11/07 00:36:04;;;;;;;4.68;2.65;;;;;;;9.42;99.34;100697.41;5056285;28;20087;-90
2022/11/07 00:38:30;;;;;;;4.70;2.90;;;;;;;9.40;98.86;100693.97;5056335;28;20029;-89
2022/11/07 00:41:04;;;;;;;4.87;2.57;;;;;;;9.38;99.13;100693.13;5056417;28;20017;-89
2022/11/07 00:43:30;;;;;;;7.63;3.00;;;;;;;9.34;99.50;100701.84;5055936;28;20161;-89
2022/11/07 00:45:56;;;;;;;4.68;2.60;;;;;;;9.32;99.02;100700.13;5056252;28;20021;-90
2022/11/07 00:48:21;;;;;;;5.00;2.50;;;;;;;9.31;99.48;100701.00;5056201;28;20504;-89
2022/11/07 00:50:47;;;;;;;3.60;2.67;;;;;;;9.29;99.58;100697.59;5056313;28;20172;-90
2022/11/07 00:53:12;;;;;;;4.30;2.40;;;;;;;9.26;99.89;100717.47;5055650;28;20036;-89
2022/11/07 00:55:38;;;;;;;4.67;2.27;;;;;;;9.26;99.73;100716.59;5056265;28;20115;-89
2022/11/07 00:58:03;;;;;;;7.87;2.50;;;;;;;9.25;99.88;100712.28;5055534;28;20017;-88
2022/11/07 01:00:28;;;;;;;5.07;2.40;;;;;;;9.24;99.61;100705.38;5056235;28;20436;-89
2022/11/07 01:05:38;;;;;;;4.35;2.42;;;;;;;9.25;100.00;100712.28;5055614;28;20492;-90
2022/11/07 01:08:04;;;;;;;4.67;2.50;;;;;;;9.27;99.67;100708.81;5056118;28;20037;-89
2022/11/07 01:10:29;;;;;;;4.90;2.60;;;;;;;9.25;100.00;100701.94;5055981;28;20538;-90
2022/11/07 01:12:55;;;;;;;4.17;2.23;;;;;;;9.26;100.00;100711.41;5055818;28;20021;-90
2022/11/07 01:15:20;;;;;;;3.20;2.20;;;;;;;9.26;99.79;100716.59;5055673;28;20055;-90
2022/11/07 01:17:45;;;;;;;3.17;2.30;;;;;;;9.25;100.00;100720.94;5055754;28;20070;-89
2022/11/07 01:20:11;;;;;;;3.17;2.30;;;;;;;9.23;100.00;100724.41;5055865;28;20070;-90
2022/11/07 01:22:37;;;;;;;4.50;2.40;;;;;;;9.23;100.00;100730.44;5055697;28;20473;-89
2022/11/07 01:25:03;;;;;;;4.00;2.37;;;;;;;9.23;100.00;100737.38;5055518;28;20056;-89
2022/11/07 01:27:28;;;;;;;5.83;2.43;;;;;;;9.22;100.00;100740.81;5055664;28;20028;-89
2022/11/07 01:29:53;;;;;;;6.90;2.87;;;;;;;9.27;100.00;100741.63;5055205;28;20272;-89
2022/11/07 01:32:19;;;;;;;7.07;2.77;;;;;;;9.20;100.00;100752.94;5055654;28;20108;-90
2022/11/07 01:34:44;;;;;;;6.27;2.83;;;;;;;9.18;100.00;100741.72;5055120;28;20017;-89
2022/11/07 01:37:10;;;;;;;5.33;2.77;;;;;;;9.17;100.00;100735.69;5055264;28;20480;-89
2022/11/07 01:39:36;;;;;;;6.03;2.37;;;;;;;9.17;100.00;100748.66;5055427;28;20021;-90
2022/11/07 01:42:02;;;;;;;5.67;2.80;;;;;;;9.19;100.00;100744.28;5054644;28;20423;-89
2022/11/07 01:44:27;;;;;;;5.20;2.50;;;;;;;9.18;100.00;100744.31;5055003;28;20428;-89
2022/11/07 01:46:56;;;;;;;6.83;2.60;;;;;;;9.21;100.00;100745.13;5054762;28;20025;-88
2022/11/07 01:49:26;;;;;;;3.13;2.40;;;;;;;9.22;100.00;100743.41;5055282;28;20025;-89
2022/11/07 01:52:03;;;;;;;3.95;2.50;;;;;;;9.26;100.00;100747.66;5055162;28;20495;-90
2022/11/07 01:54:42;;;;;;;3.67;2.40;;;;;;;9.21;100.00;100734.78;5055386;28;20111;-90
2022/11/07 01:57:14;;;;;;;4.50;2.40;;;;;;;9.19;100.00;100736.53;5054647;28;20369;-89
2022/11/07 01:59:40;;;;;;;4.18;2.40;;;;;;;9.19;100.00;100739.09;5054360;28;20028;-89
2022/11/07 02:02:07;;;;;;;3.77;2.40;;;;;;;9.20;100.00;100745.16;5054301;28;20071;-90
2022/11/07 02:04:32;;;;;;;5.03;2.40;;;;;;;9.20;100.00;100752.94;5055103;28;20087;-89
2022/11/07 02:07:08;;;;;;;4.10;2.50;;;;;;;9.21;100.00;100750.31;5054086;28;20481;-89
2022/11/07 02:09:34;;;;;;;4.18;2.40;;;;;;;9.24;100.00;100745.09;5054299;28;20082;-89
2022/11/07 02:12:00;;;;;;;6.80;2.63;;;;;;;9.29;100.00;100751.97;5054376;28;20033;-90
2022/11/07 02:14:26;;;;;;;6.75;2.83;;;;;;;9.33;100.00;100756.22;5054498;28;20528;-90
2022/11/07 02:16:52;;;;;;;5.38;2.58;;;;;;;9.36;100.00;100757.03;5054281;28;20021;-89
2022/11/07 02:19:38;;;;;;;6.03;2.40;;;;;;;9.39;100.00;100758.75;5054355;28;20056;-90
2022/11/07 02:22:18;;;;;;;5.35;2.50;;;;;;;9.41;100.00;100756.97;5053979;28;20115;-89
2022/11/07 02:24:44;;;;;;;8.45;2.40;;;;;;;9.41;100.00;100744.03;5054660;28;20021;-90
2022/11/07 02:27:13;;;;;;;4.18;2.50;;;;;;;9.44;100.00;100756.97;5053892;28;20532;-90
2022/11/07 02:29:42;;;;;;;6.97;2.58;;;;;;;9.48;100.00;100753.47;5054084;28;20033;-89
2022/11/07 02:32:10;;;;;;;4.40;2.35;;;;;;;9.51;100.00;100758.63;5054210;28;20025;-90
2022/11/07 02:34:35;;;;;;;4.13;2.30;;;;;;;9.52;100.00;100764.63;5053951;28;20082;-90
2022/11/07 02:37:05;;;;;;;2.47;2.20;;;;;;;9.49;100.00;100759.50;5053860;28;20110;-89
2022/11/07 02:39:30;;;;;;;4.43;2.40;;;;;;;9.48;100.00;100763.81;5054031;28;20032;-89
2022/11/07 02:41:58;;;;;;;5.60;2.57;;;;;;;9.50;100.00;100763.81;5054127;28;20024;-89
2022/11/07 02:44:24;;;;;;;6.45;2.30;;;;;;;9.46;100.00;100752.63;5054223;28;20094;-90
2022/11/07 02:46:49;;;;;;;6.32;2.83;;;;;;;9.42;100.00;100743.16;5053752;28;20025;-89
2022/11/07 02:49:15;;;;;;;3.40;2.13;;;;;;;9.45;100.00;100747.47;5053801;28;20109;-90
2022/11/07 02:51:40;;;;;;;4.17;2.37;;;;;;;9.45;100.00;100730.19;5054138;28;20029;-90
2022/11/07 02:54:05;;;;;;;5.60;2.30;;;;;;;9.45;100.00;100735.34;5053996;28;20052;-90
2022/11/07 02:56:31;;;;;;;4.73;2.60;;;;;;;9.47;100.00;100750.88;5053858;28;20036;-90
2022/11/07 02:59:04;;;;;;;6.20;2.60;;;;;;;9.45;100.00;100745.72;5053537;28;20057;-89
2022/11/07 03:01:30;;;;;;;6.85;2.80;;;;;;;9.49;100.00;100743.94;5054107;28;20037;-89
2022/11/07 03:04:02;;;;;;;4.10;2.40;;;;;;;9.47;100.00;100736.22;5053368;28;20086;-90
2022/11/07 03:06:27;;;;;;;5.25;2.30;;;;;;;9.46;100.00;100733.66;5053409;28;20044;-89
2022/11/07 03:08:52;;;;;;;4.93;2.50;;;;;;;9.43;100.00;100727.63;5053525;28;20033;-89
2022/11/07 03:11:38;;;;;;;5.80;2.60;;;;;;;9.46;100.00;100733.66;5053912;28;20124;-90
2022/11/07 03:14:24;;;;;;;6.10;2.57;;;;;;;9.45;100.00;100740.53;5053519;28;20036;-88
2022/11/07 03:16:51;;;;;;;5.60;2.50;;;;;;;9.42;100.00;100736.25;5053796;28;20307;-89
2022/11/07 03:19:25;;;;;;;4.32;2.40;;;;;;;9.43;100.00;100742.28;5054381;28;20025;-90
2022/11/07 03:22:03;;;;;;;5.50;2.60;;;;;;;9.45;100.00;100747.47;5054181;28;20032;-89
2022/11/07 03:24:38;;;;;;;6.03;2.50;;;;;;;9.45;100.00;100745.72;5053773;28;20477;-90
2022/11/07 03:27:05;;;;;;;4.63;2.30;;;;;;;9.46;100.00;100749.19;5053794;28;20488;-90
2022/11/07 03:29:30;;;;;;;4.63;2.30;;;;;;;9.43;100.00;100745.75;5053501;28;20063;-89
2022/11/07 03:31:55;;;;;;;6.20;2.40;;;;;;;9.43;100.00;100745.75;5053108;28;20021;-90
2022/11/07 03:34:20;;;;;;;7.50;2.57;;;;;;;9.45;100.00;100735.34;5053541;28;20052;-88
2022/11/07 03:36:46;;;;;;;6.43;2.73;;;;;;;9.45;100.00;100742.28;5053874;28;20132;-88
2022/11/07 03:39:11;;;;;;;7.03;2.70;;;;;;;9.46;100.00;100742.25;5053281;28;20028;-90
2022/11/07 03:41:36;;;;;;;5.87;2.40;;;;;;;9.46;100.00;100746.59;5053185;28;20088;-90
2022/11/07 03:44:02;;;;;;;8.23;2.50;;;;;;;9.45;100.00;100750.06;5053058;28;20059;-88
2022/11/07 03:46:27;;;;;;;5.77;2.50;;;;;;;9.46;100.00;100744.84;5053621;28;20232;-90
2022/11/07 03:48:52;;;;;;;6.33;2.63;;;;;;;9.48;100.00;100742.22;5053152;28;20026;-90
2022/11/07 03:51:17;;;;;;;6.40;2.33;;;;;;;9.51;100.00;100755.16;5052922;28;20166;-89
2022/11/07 03:53:43;;;;;;;6.10;2.40;;;;;;;9.59;100.00;100755.91;5053129;28;20021;-89
2022/11/07 03:56:10;;;;;;;6.77;2.53;;;;;;;9.58;100.00;100755.06;5052837;28;20021;-89
2022/11/07 03:58:36;;;;;;;4.65;2.65;;;;;;;9.61;100.00;100753.31;5053491;28;20031;-89
2022/11/07 04:01:02;;;;;;;6.35;2.50;;;;;;;9.66;100.00;100754.97;5054485;28;20063;-90
2022/11/07 04:03:28;;;;;;;5.28;2.28;;;;;;;9.69;100.00;100744.53;5056749;28;20135;-90
2022/11/07 04:05:53;;;;;;;3.53;2.20;;;;;;;9.70;100.00;100742.81;5056986;28;20123;-89
2022/11/07 04:08:19;;;;;;;6.30;2.30;;;;;;;9.72;100.00;100744.50;5056856;28;20025;-90
2022/11/07 04:10:44;;;;;;;7.23;2.43;;;;;;;9.74;100.00;100749.66;5057176;28;20025;-89
2022/11/07 04:18:37;;;;;;;3.72;2.20;;;;;;;9.78;100.00;100748.75;5056975;28;20067;-90
2022/11/07 04:21:03;;;;;;;5.90;2.77;;;;;;;9.78;100.00;100747.91;5056377;28;20386;-89
2022/11/07 04:23:28;;;;;;;8.33;2.30;;;;;;;9.77;100.00;100753.97;5056757;28;20078;-89
2022/11/07 04:28:37;;;;;;;5.05;2.00;;;;;;;9.76;100.00;100753.09;5056869;28;20066;-90
2022/11/07 04:31:03;;;;;;;6.07;2.37;;;;;;;9.74;100.00;100747.94;5056470;28;20024;-90
2022/11/07 04:33:28;;;;;;;5.47;2.10;;;;;;;9.74;100.00;100752.25;5056181;28;20032;-89
2022/11/07 04:35:53;;;;;;;8.63;2.30;;;;;;;9.73;100.00;100768.72;5056403;28;20155;-89
2022/11/07 04:38:19;;;;;;;8.53;2.53;;;;;;;9.70;100.00;100761.81;5056195;28;20025;-89
2022/11/07 04:40:44;;;;;;;3.77;2.00;;;;;;;9.68;100.00;100758.38;5057397;28;20025;-90
2022/11/07 04:43:09;;;;;;;5.67;2.10;;;;;;;9.67;100.00;100758.41;5056696;28;20374;-90
2022/11/07 04:45:36;;;;;;;6.55;2.30;;;;;;;9.65;100.00;100758.44;5056569;28;20456;-90
2022/11/07 04:48:02;;;;;;;7.80;2.30;;;;;;;9.62;100.00;100773.16;5056451;28;20090;-90
2022/11/07 04:50:27;;;;;;;6.73;2.00;;;;;;;9.63;100.00;100767.97;5056032;28;20457;-89
2022/11/07 04:52:52;;;;;;;4.50;2.20;;;;;;;9.65;100.00;100765.34;5045260;28;20033;-89
2022/11/07 04:55:23;;;;;;;5.90;2.10;;;;;;;9.68;100.00;100767.91;5036402;28;20049;-90
2022/11/07 04:57:49;;;;;;;5.05;2.30;;;;;;;9.68;100.00;100760.97;5036165;28;20099;-89
2022/11/07 05:00:16;;;;;;;7.53;2.10;;;;;;;9.70;100.00;100753.19;5036081;28;20482;-90
2022/11/07 05:02:41;;;;;;;5.25;2.47;;;;;;;9.73;100.00;100766.97;5035538;28;20442;-89
2022/11/07 05:05:07;;;;;;;4.97;2.20;;;;;;;9.76;100.00;100760.03;5036143;28;20109;-90
2022/11/07 05:07:32;;;;;;;5.40;2.20;;;;;;;9.76;100.00;100755.69;5046253;28;20042;-89
2022/11/07 05:09:57;;;;;;;5.10;2.10;;;;;;;9.77;100.00;100769.53;5055495;28;20033;-89
2022/11/07 05:12:23;;;;;;;6.23;2.37;;;;;;;9.87;100.00;100768.53;5055351;28;20065;-90
2022/11/07 05:14:48;;;;;;;4.63;1.97;;;;;;;9.82;100.00;100768.59;5055376;28;20017;-88
2022/11/07 05:17:15;;;;;;;5.83;2.10;;;;;;;9.82;100.00;100771.19;5055662;28;20525;-89
2022/11/07 05:19:44;;;;;;;4.20;2.17;;;;;;;9.84;100.00;100771.16;5055513;28;20021;-90
2022/11/07 05:24:54;;;;;;;7.57;2.30;;;;;;;9.81;100.00;100784.13;5055714;28;20043;-89
2022/11/07 05:27:20;;;;;;;8.73;2.67;;;;;;;9.79;100.00;100778.13;5055410;28;20021;-90
2022/11/07 05:29:46;;;;;;;6.25;2.22;;;;;;;9.83;100.00;100770.31;5055833;28;20017;-89
2022/11/07 05:32:12;;;;;;;5.47;2.20;;;;;;;9.82;100.00;100781.53;5055317;28;20055;-89
2022/11/07 05:34:37;;;;;;;6.40;2.57;;;;;;;9.80;100.00;100777.22;5055511;28;20024;-89
2022/11/07 05:37:06;;;;;;;6.37;2.40;;;;;;;9.79;100.00;100773.81;5055203;28;20111;-89
2022/11/07 05:39:31;;;;;;;8.63;2.33;;;;;;;9.77;100.00;100788.50;5055368;28;20086;-90
2022/11/07 05:41:59;;;;;;;6.33;2.40;;;;;;;9.80;100.00;100779.81;5055539;28;20453;-89
2022/11/07 05:44:24;;;;;;;5.95;2.30;;;;;;;9.81;100.00;100786.72;5056103;28;20056;-91
2022/11/07 05:46:49;;;;;;;6.33;2.07;;;;;;;9.85;100.00;100785.81;5054633;28;20051;-89
2022/11/07 05:49:14;;;;;;;5.53;2.23;;;;;;;9.85;100.00;100778.03;5054450;28;20025;-89
2022/11/07 05:51:42;;;;;;;6.03;2.10;;;;;;;9.85;100.00;100778.88;5055176;28;20484;-88
2022/11/07 05:54:07;;;;;;;4.75;2.00;;;;;;;9.87;100.00;100774.53;5054762;28;20037;-88
2022/11/07 05:56:32;;;;;;;7.80;2.30;;;;;;;9.88;100.00;100783.19;5054360;28;20059;-90
2022/11/07 05:58:58;;;;;;;3.43;2.00;;;;;;;9.91;100.00;100777.09;5054870;28;20028;-89
2022/11/07 06:01:23;;;;;;;8.00;2.50;;;;;;;9.91;100.00;100769.31;5048624;28;20056;-89
2022/11/07 06:03:48;;;;;;;6.23;2.20;;;;;;;9.91;100.00;100777.94;5034686;28;20470;-89
2022/11/07 06:06:13;;;;;;;5.77;2.00;;;;;;;9.91;99.93;100769.31;5034105;28;20045;-89
2022/11/07 06:08:39;;;;;;;4.93;1.93;;;;;;;9.92;100.00;100778.81;5035326;28;20025;-89
2022/11/07 06:11:04;;;;;;;7.57;2.33;;;;;;;9.93;100.00;100783.13;5034725;28;20026;-87
2022/11/07 06:13:30;;;;;;;6.80;2.10;;;;;;;9.94;100.00;100777.91;5034337;28;20018;-90
2022/11/07 06:15:56;;;;;;;7.63;2.17;;;;;;;10.00;99.80;100788.22;5046672;28;20044;-91
2022/11/07 06:18:22;;;;;;;4.70;1.90;;;;;;;9.99;99.77;100781.31;5054993;28;20052;-91
2022/11/07 06:20:47;;;;;;;4.43;1.90;;;;;;;10.01;99.99;100779.56;5055364;28;20025;-91
2022/11/07 06:23:13;;;;;;;6.13;2.20;;;;;;;10.05;99.78;100786.41;5053706;28;20123;-91
2022/11/07 06:25:38;;;;;;;5.30;2.10;;;;;;;10.05;99.74;100781.22;5056517;28;20025;-91
2022/11/07 06:28:06;;;;;;;4.87;1.73;;;;;;;10.09;99.34;100786.38;5054579;28;20024;-90
2022/11/07 06:30:32;;;;;;;7.82;2.60;;;;;;;10.11;99.45;100782.88;5054669;28;20029;-91
2022/11/07 06:33:07;;;;;;;12.35;2.85;;;;;;;10.11;99.36;100790.66;5054475;28;20025;-91
2022/11/07 06:35:33;;;;;;;7.80;2.42;;;;;;;10.12;99.42;100792.38;5054223;28;20033;-91
2022/11/07 06:38:02;;;;;;;9.30;2.33;;;;;;;10.14;99.37;100789.72;5054730;28;20381;-91
2022/11/07 06:40:27;;;;;;;6.57;2.20;;;;;;;10.19;99.22;100785.34;5054471;28;20370;-93
2022/11/07 06:42:52;;;;;;;9.63;2.37;;;;;;;10.17;99.11;100792.28;5054493;28;20021;-91
2022/11/07 06:45:18;;;;;;;7.00;2.37;;;;;;;10.19;99.32;100800.91;5055567;28;20029;-92
2022/11/07 06:47:43;;;;;;;5.67;2.13;;;;;;;10.21;99.58;100799.16;5062798;28;20048;-91
2022/11/07 06:50:08;;;;;;;5.67;2.20;;;;;;;10.20;99.37;100798.28;5053694;28;20029;-92
2022/11/07 06:52:34;;;;;;;3.37;2.00;;;;;;;10.23;99.49;100807.78;5054012;28;20048;-93
2022/11/07 06:54:59;;;;;;;7.47;2.30;;;;;;;10.24;99.24;100800.84;5053101;28;20485;-88
2022/11/07 06:57:24;;;;;;;3.63;2.00;;;;;;;10.25;99.22;100802.56;5054020;28;20036;-90
2022/11/07 06:59:49;;;;;;;6.83;2.00;;;;;;;10.27;99.26;100806.00;5053670;28;20025;-89
2022/11/07 07:02:15;;;;;;;5.43;2.00;;;;;;;10.28;99.41;100811.16;5052523;28;20021;-89
2022/11/07 07:04:40;;;;;;;6.07;1.90;;;;;;;10.32;99.52;100814.56;5053782;28;20029;-88
2022/11/07 07:07:05;;;;;;;6.60;2.10;;;;;;;10.34;99.33;100812.78;5052372;28;20041;-87
2022/11/07 07:09:32;;;;;;;8.13;2.30;;;;;;;10.32;99.52;100818.03;5052539;28;20021;-85
2022/11/07 07:11:57;;;;;;;10.85;2.50;;;;;;;10.35;99.40;100812.78;5052392;28;20021;-80
2022/11/07 07:14:22;;;;;;;5.90;2.10;;;;;;;10.40;99.46;100827.44;5052437;28;20090;-80
2022/11/07 07:16:47;;;;;;;7.00;2.30;;;;;;;10.39;99.26;100821.41;5053873;28;20551;-91
2022/11/07 07:19:13;;;;;;;6.90;2.40;;;;;;;10.40;99.15;100817.94;5053787;28;20021;-91
2022/11/07 07:21:38;;;;;;;4.90;2.50;;;;;;;10.40;99.07;100830.03;5053463;28;20539;-91
2022/11/07 07:24:04;;;;;;;4.20;1.90;;;;;;;10.42;99.30;100841.25;5053684;28;20127;-91
2022/11/07 07:26:31;;;;;;;6.33;2.17;;;;;;;10.45;99.02;100839.47;5053620;28;20033;-93
2022/11/07 07:29:17;;;;;;;6.03;1.88;;;;;;;10.45;99.00;100838.63;5053728;28;20036;-93
2022/11/07 07:31:42;;;;;;;8.40;2.38;;;;;;;10.47;98.95;100837.72;5053016;28;20106;-91
2022/11/07 07:34:08;;;;;;;7.77;2.17;;;;;;;10.46;98.70;100840.34;5053431;28;20465;-92
2022/11/07 07:36:33;;;;;;;9.03;2.20;;;;;;;10.49;99.14;100842.88;5058086;28;20123;-91
2022/11/07 07:38:59;;;;;;;6.93;2.20;;;;;;;10.51;99.20;100841.13;5057596;28;20044;-91
2022/11/07 07:41:30;;;;;;;5.50;2.00;;;;;;;10.53;99.19;100834.16;5057365;28;20009;-91
2022/11/07 07:43:55;;;;;;;9.70;2.30;;;;;;;10.56;98.84;100848.84;5057596;28;20037;-91
2022/11/07 07:46:22;;;;;;;9.13;2.40;;;;;;;10.59;99.14;100846.19;5057492;28;20035;-91
2022/11/07 07:48:47;;;;;;;8.05;2.40;;;;;;;10.61;98.73;100844.44;5058985;28;20104;-90
2022/11/07 07:51:13;;;;;;;6.87;2.03;;;;;;;10.65;98.69;100849.56;5059549;28;20051;-90
2022/11/07 07:53:39;;;;;;;3.93;2.03;;;;;;;10.64;98.91;100855.63;5057408;28;20466;-90
2022/11/07 07:56:06;;;;;;;6.53;2.10;;;;;;;10.70;98.77;100852.09;5056706;28;20021;-89
2022/11/07 07:58:32;;;;;;;8.15;2.28;;;;;;;10.77;98.59;100855.44;5057525;28;20576;-91
2022/11/07 08:00:57;;;;;;;8.80;2.20;;;;;;;10.82;98.44;100859.69;5057015;28;20036;-91
2022/11/07 08:03:29;;;;;;;9.63;2.43;;;;;;;10.92;98.88;100856.91;5057017;28;20025;-90
2022/11/07 08:06:01;;;;;;;9.00;2.60;;;;;;;11.01;98.60;100866.31;5056408;28;20029;-90
2022/11/07 08:08:35;;;;;;;7.88;2.20;;;;;;;11.12;98.48;100865.22;5057225;28;20033;-90
2022/11/07 08:11:10;;;;;;;8.80;2.30;;;;;;;11.21;98.36;100866.81;5056727;28;20082;-88
2022/11/07 08:13:50;;;;;;;6.93;2.30;;;;;;;11.31;97.78;100867.53;5056802;28;20040;-96
2022/11/07 08:16:16;;;;;;;8.32;2.20;;;;;;;11.31;97.59;100869.25;5056531;28;20040;-86
2022/11/07 08:18:42;;;;;;;5.50;1.90;;;;;;;11.34;97.94;100864.00;5056090;28;20025;-88
2022/11/07 08:21:10;;;;;;;5.60;2.00;;;;;;;11.39;97.75;100868.22;5055783;28;20377;-88
2022/11/07 08:23:36;;;;;;;8.45;2.10;;;;;;;11.41;97.43;100860.41;5056603;28;20029;-88
2022/11/07 08:26:03;;;;;;;7.63;2.20;;;;;;;11.49;97.15;100874.09;5056014;28;20013;-88
2022/11/07 08:28:32;;;;;;;6.38;2.10;;;;;;;11.59;97.89;100878.28;5055731;28;20036;-88
2022/11/07 08:31:00;;;;;;;8.63;2.20;;;;;;;11.72;96.74;100881.47;5056220;28;20087;-85
2022/11/07 08:33:26;;;;;;;11.05;2.28;;;;;;;11.79;96.28;100881.34;5055504;28;20032;-85
2022/11/07 08:35:59;;;;;;;8.25;2.20;;;;;;;11.86;96.64;100886.41;5055809;28;20036;-86
2022/11/07 08:38:26;;;;;;;5.40;2.15;;;;;;;11.94;96.72;100883.66;5055068;28;20025;-86
2022/11/07 08:40:51;;;;;;;8.38;1.90;;;;;;;12.03;95.64;100887.84;5054673;28;20031;-85
2022/11/07 08:43:17;;;;;;;11.10;2.30;;;;;;;12.02;94.81;100894.78;5055321;28;20112;-86
2022/11/07 08:45:47;;;;;;;8.20;2.27;;;;;;;11.99;94.92;100883.59;5054957;28;20033;-87
2022/11/07 08:48:13;;;;;;;7.57;2.40;;;;;;;11.97;94.89;100903.53;5054061;28;20036;-84
2022/11/07 08:50:38;;;;;;;6.90;2.23;;;;;;;11.97;95.42;100895.72;5055329;28;20025;-85
2022/11/07 08:53:04;;;;;;;10.03;2.20;;;;;;;11.96;94.88;100901.81;5054859;28;20061;-85
2022/11/07 08:55:30;;;;;;;10.33;2.20;;;;;;;11.98;95.56;100913.06;5053611;28;20064;-86
2022/11/07 08:58:04;;;;;;;4.97;2.10;;;;;;;11.99;95.66;100914.78;5055431;28;20041;-86
2022/11/07 09:00:30;;;;;;;6.80;2.25;;;;;;;12.03;95.68;100908.66;5055253;28;20059;-86
2022/11/07 09:02:55;;;;;;;4.63;1.93;;;;;;;12.07;95.61;100925.06;5054331;28;20453;-85
2022/11/07 09:05:20;;;;;;;6.37;2.27;;;;;;;12.08;95.08;100926.78;5054472;28;20028;-85
2022/11/07 09:07:46;;;;;;;6.33;2.57;;;;;;;12.05;95.05;100918.13;5054673;28;20444;-85
2022/11/07 09:10:11;;;;;;;6.10;2.13;;;;;;;12.05;94.89;100928.53;5053420;28;20436;-85
2022/11/07 09:12:46;;;;;;;6.53;2.33;;;;;;;12.05;94.77;100931.13;5054848;28;20035;-85
2022/11/07 09:15:12;;;;;;;7.45;2.40;;;;;;;12.02;95.45;100926.00;5054530;28;20052;-85
2022/11/07 09:17:38;;;;;;;8.37;2.07;;;;;;;12.02;95.78;100936.41;5053963;28;20052;-85
2022/11/07 09:20:03;;;;;;;10.20;2.27;;;;;;;12.01;94.98;100928.63;5054053;28;20130;-84
2022/11/07 09:22:29;;;;;;;6.37;2.07;;;;;;;11.99;95.49;100928.66;5054415;28;20029;-86
2022/11/07 09:24:54;;;;;;;6.57;2.00;;;;;;;11.99;95.57;100933.84;5053609;28;20531;-85
2022/11/07 09:27:19;;;;;;;6.00;2.20;;;;;;;12.01;95.39;100941.63;5054314;28;20021;-85
2022/11/07 09:29:44;;;;;;;4.33;1.93;;;;;;;12.05;95.71;100932.88;5053382;28;20040;-85
2022/11/07 09:32:10;;;;;;;7.17;2.23;;;;;;;12.05;95.31;100938.94;5054136;28;20037;-85
2022/11/07 09:34:35;;;;;;;5.53;1.90;;;;;;;12.09;95.34;100947.53;5054513;28;20017;-85
2022/11/07 09:37:02;;;;;;;7.60;2.20;;;;;;;12.11;94.97;100940.56;5053412;28;20576;-85
2022/11/07 09:39:27;;;;;;;7.22;2.30;;;;;;;12.13;95.13;100949.19;5054518;28;20016;-85
2022/11/07 09:42:21;;;;;;;5.93;2.37;;;;;;;12.16;94.74;100948.28;5054209;28;20108;-85
2022/11/07 09:44:55;;;;;;;5.57;2.25;;;;;;;12.17;95.24;100950.84;5053455;28;20021;-85
2022/11/07 09:47:33;;;;;;;4.97;1.98;;;;;;;12.19;94.98;100948.22;5053898;28;20378;-86
2022/11/07 09:50:05;;;;;;;8.05;2.00;;;;;;;12.24;94.89;100948.97;5054172;28;20025;-85
2022/11/07 09:53:00;;;;;;;7.90;2.35;;;;;;;12.28;94.59;100950.63;5053715;28;20029;-85
2022/11/07 09:55:32;;;;;;;8.40;2.42;;;;;;;12.33;94.50;100960.94;5053167;28;20043;-85
2022/11/07 09:58:05;;;;;;;5.70;2.30;;;;;;;12.36;94.67;100948.72;5053071;28;20033;-85
2022/11/07 10:00:31;;;;;;;12.43;2.80;;;;;;;12.36;94.04;100948.72;5053465;28;20029;-85
2022/11/07 10:02:58;;;;;;;6.60;2.20;;;;;;;12.39;94.25;100952.16;5053895;28;20039;-85
2022/11/07 10:05:27;;;;;;;;;;;;;;;12.40;94.35;100957.31;5068858;22;20307;-85
2022/11/07 10:08:15;;;;;;;5.75;2.00;;;;;;;12.42;94.47;100959.91;5056001;28;19913;-85
2022/11/07 10:10:56;;;;;;;8.63;2.20;;;;;;;12.42;94.27;100970.31;5054041;28;20063;-85
2022/11/07 10:13:55;;;;;;;5.82;2.00;;;;;;;12.42;94.28;100959.91;5052832;28;20037;-84
2022/11/07 10:16:55;;;;;;;5.53;2.08;;;;;;;12.43;94.50;100949.44;5053371;28;20490;-85
2022/11/07 10:19:45;;;;;;;6.45;1.90;;;;;;;12.45;94.23;100962.41;5036556;28;20044;-85
2022/11/07 10:22:37;;;;;;;4.90;1.92;;;;;;;12.46;94.42;100964.13;5048581;28;20028;-85
2022/11/07 10:25:19;;;;;;;7.10;2.20;;;;;;;12.46;93.85;100970.22;5046195;28;20032;-85
2022/11/07 10:27:53;;;;;;;7.60;2.30;;;;;;;12.48;93.35;100958.03;5052709;28;20090;-85
2022/11/07 10:30:20;;;;;;;8.73;2.30;;;;;;;12.48;92.58;100962.34;5052834;28;20112;-85
2022/11/07 10:32:55;;;;;;;7.57;2.20;;;;;;;12.51;92.89;100957.09;5053293;28;20104;-84
2022/11/07 10:35:38;;;;;;;9.65;2.50;;;;;;;12.54;93.37;100966.56;5049852;28;20029;-84
2022/11/07 10:38:17;;;;;;;9.35;2.42;;;;;;;12.60;92.74;100967.31;5053107;28;20075;-84
2022/11/07 10:40:45;;;;;;;5.82;2.08;;;;;;;12.70;92.72;100969.69;5052579;28;20020;-85
2022/11/07 10:43:24;;;;;;;6.20;1.90;;;;;;;12.77;92.86;100974.75;5052970;28;20442;-84
2022/11/07 10:45:51;;;;;;;6.72;2.22;;;;;;;12.83;92.60;100985.00;5052858;28;20068;-85
2022/11/07 10:48:16;;;;;;;7.53;2.38;;;;;;;12.88;91.94;100984.06;5051300;28;20033;-85
2022/11/07 10:50:50;;;;;;;8.50;2.30;;;;;;;12.89;92.31;100973.59;5051795;28;20381;-84
2022/11/07 10:53:19;;;;;;;7.55;2.10;;;;;;;12.92;91.92;100976.13;5051699;28;20308;-84
2022/11/07 10:55:46;;;;;;;6.25;1.95;;;;;;;13.01;92.14;100982.91;5050335;28;20079;-84
2022/11/07 10:58:17;;;;;;;9.95;2.25;;;;;;;13.15;90.44;100974.75;5050429;28;20360;-84
2022/11/07 11:00:43;;;;;;;6.78;2.10;;;;;;;13.19;90.88;100980.72;5051004;28;20029;-84
2022/11/07 11:03:23;;;;;;;4.55;2.00;;;;;;;13.24;91.48;100984.09;5049730;28;20035;-83
2022/11/07 11:05:49;;;;;;;10.20;2.38;;;;;;;13.32;89.89;100986.53;5052774;28;20071;-84
2022/11/07 11:08:22;;;;;;;6.97;2.00;;;;;;;13.33;90.02;100983.88;5052011;28;20040;-83
2022/11/07 11:10:49;;;;;;;9.43;2.30;;;;;;;13.35;88.56;101000.34;5052364;28;20322;-84
2022/11/07 11:13:32;;;;;;;7.65;2.33;;;;;;;13.34;88.77;100976.94;5052736;28;20029;-84
2022/11/07 11:16:23;;;;;;;7.05;2.20;;;;;;;13.36;88.67;100977.72;5052054;28;20551;-85
2022/11/07 11:18:50;;;;;;;7.13;2.00;;;;;;;13.39;88.74;100973.34;5052607;28;20051;-84
2022/11/07 11:21:16;;;;;;;9.80;2.17;;;;;;;13.44;88.49;100974.06;5052235;28;20078;-84
2022/11/07 11:23:44;;;;;;;5.30;2.00;;;;;;;13.48;88.75;100976.59;5053177;28;20029;-84
2022/11/07 11:26:31;;;;;;;9.23;2.22;;;;;;;13.50;88.64;100972.22;5052282;28;20040;-84
2022/11/07 11:29:02;;;;;;;8.13;2.40;;;;;;;13.51;88.30;100966.09;5052972;28;20029;-84
2022/11/07 11:31:33;;;;;;;11.63;2.47;;;;;;;13.54;87.27;100973.81;5052961;28;20481;-84
2022/11/07 11:34:11;;;;;;;8.20;2.47;;;;;;;13.55;87.75;100967.72;5052441;28;20481;-83
2022/11/07 11:36:46;;;;;;;9.55;2.05;;;;;;;13.60;87.16;100971.06;5052029;28;20067;-84
2022/11/07 11:39:26;;;;;;;6.82;2.15;;;;;;;13.65;87.45;100958.75;5052295;28;20025;-84
2022/11/07 11:41:57;;;;;;;6.03;2.00;;;;;;;13.73;87.83;100964.66;5053730;28;20021;-85
2022/11/07 11:44:34;;;;;;;7.07;2.30;;;;;;;13.79;87.21;100965.38;5051427;28;20052;-84
2022/11/07 11:47:37;;;;;;;7.45;2.13;;;;;;;13.87;87.63;100956.44;5052607;28;20029;-85